Station: ROXBY DOWNS AWS

  Atmospheric Gas Attenuation - ITU Rec 676-11   --------------- db/100km ---------------
Date Time Temp RH % AH g/m3 Dew Point Wind Direction Speed kph Gust kph Barometer mB Rainfall Since 9am 24GHz 47GHz 76GHz 122GHz 134GHz 241GHz
24 19:30 39 9 4.37 0.4 4 11 999.4 0 9.9 14.7 17.7 45.9 34.3 116.0
24 19:20 39.1 9 4.39 0.5 7 7 999.4 0 10.0 14.8 17.7 45.9 34.4 116.5
24 19:10 39.3 9 4.44 0.6 7 7 999.5 0 10.0 14.8 17.8 46.2 34.7 117.6
24 19:00 39.3 9 4.44 0.6 7 9 999.4 0 10.0 14.8 17.8 46.2 34.7 117.6
24 18:50 39.2 9 4.42 0.6 9 9 999.4 0 10.0 14.8 17.8 46.1 34.6 117.2
24 18:40 38.9 9 4.35 0.3 11 13 999.4 0 9.9 14.7 17.7 45.8 34.2 115.6
24 18:30 38.9 9 4.35 0.3 9 13 999.5 0 9.9 14.7 17.7 45.8 34.2 115.6
24 18:20 39 9 4.37 0.4 11 11 999.5 0 9.9 14.8 17.7 45.9 34.3 116.0
24 18:10 39.3 9 4.44 0.6 6 7 999.5 0 10.0 14.8 17.8 46.2 34.7 117.6
24 18:00 39.4 9 4.46 0.7 9 11 999.6 0 10.1 14.8 17.8 46.3 34.9 118.1
24 17:50 39.5 9 4.48 0.8 6 7 999.6 0 10.1 14.8 17.9 46.3 35.0 118.5
24 17:40 39.6 8 4 -0.8 0 0 999.6 0 9.2 14.3 16.7 43.2 31.1 104.8
24 17:30 39.6 8 4 -0.8 6 9 999.6 0 9.2 14.3 16.7 43.2 31.1 104.8
24 17:20 39.7 9 4.53 0.9 0 0 999.7 0 10.2 14.8 17.9 46.6 35.3 119.7
24 17:10 39.6 9 4.51 0.9 6 6 999.8 0 10.2 14.8 17.9 46.5 35.2 119.3
24 17:00 39.6 9 4.51 0.9 9 19 999.9 0 10.2 14.8 17.9 46.5 35.2 119.3
24 16:50 39.7 9 4.53 0.9 7 9 1000 0 10.2 14.8 18.0 46.6 35.3 119.7
24 16:40 39.7 9 4.53 0.9 11 13 1000.3 0 10.2 14.8 18.0 46.6 35.3 119.8
24 16:30 39.8 9 4.55 1 13 20 1000.4 0 10.3 14.8 18.0 46.7 35.5 120.2
24 16:20 39.5 9 4.48 0.8 19 20 1000.5 0 10.1 14.8 17.9 46.4 35.0 118.6
24 16:10 39.3 9 4.44 0.6 15 19 1000.7 0 10.0 14.8 17.8 46.2 34.8 117.8
24 16:00 39.6 9 4.51 0.9 30 46 1000.9 0 10.2 14.8 18.0 46.5 35.2 119.4
24 15:50 40.6 8 4.21 0 19 20 1000.9 0 9.6 14.4 17.0 44.1 32.5 109.6
24 15:40 40.5 9 4.71 1.5 13 15 1001 0 10.6 14.9 18.3 47.4 36.5 123.9
24 15:30 40.7 9 4.76 1.7 9 15 1001.1 0 10.7 14.9 18.3 47.6 36.8 125.0
24 15:20 40.5 9 4.71 1.5 9 11 1001.2 0 10.6 14.9 18.3 47.4 36.5 123.9
24 15:10 40.7 9 4.76 1.7 13 15 1001.3 0 10.7 14.9 18.3 47.6 36.8 125.0
24 15:00 40.7 8 4.23 0 19 26 1001.4 0 9.6 14.4 17.1 44.2 32.6 110.1
24 14:50 41.2 8 4.34 0.4 20 22 1001.5 0 9.8 14.5 17.2 44.7 33.3 112.6
24 14:40 41.3 8 4.36 0.5 22 26 1001.6 0 9.8 14.5 17.3 44.7 33.4 113.0
24 14:30 41.3 9 4.91 2.1 19 33 1001.7 0 10.9 15.0 18.6 48.3 37.8 128.5
24 14:20 40.9 8 4.27 0.2 17 20 1001.7 0 9.7 14.4 17.1 44.4 32.8 111.0
24 14:10 41.5 9 4.95 2.3 22 24 1001.7 0 11.0 15.0 18.6 48.5 38.0 129.3
24 14:00 41.7 8 4.45 0.8 19 30 1001.8 0 10.0 14.5 17.4 45.1 34.0 115.0
24 13:50 41.7 8 4.45 0.8 26 30 1002 0 10.0 14.5 17.4 45.1 34.0 115.1
24 13:40 41.2 9 4.88 2 24 28 1002.1 0 10.9 15.0 18.6 48.2 37.6 127.8
24 13:30 41 9 4.83 1.9 22 32 1002.4 0 10.8 15.0 18.5 48.0 37.3 126.7
24 13:20 42.1 9 5.1 2.7 19 22 1002.6 0 11.3 15.1 18.9 49.2 39.0 132.8
24 13:10 41.2 9 4.88 2 20 24 1002.7 0 10.9 15.0 18.6 48.2 37.6 127.9
24 13:00 40.6 9 4.74 1.6 20 32 1002.9 0 10.6 15.0 18.4 47.6 36.8 124.8
24 12:50 40.5 9 4.71 1.5 20 24 1003.1 0 10.6 15.0 18.3 47.5 36.6 124.1
24 12:40 40.3 9 4.67 1.4 28 32 1003.3 0 10.5 15.0 18.3 47.4 36.3 123.3
24 12:30 40.7 9 4.76 1.7 26 35 1003.3 0 10.7 15.0 18.4 47.7 36.9 125.3
24 12:20 40.2 10 5.16 2.8 17 20 1003.4 0 11.5 15.5 19.5 50.7 40.4 137.5
24 12:10 40.6 9 4.74 1.6 22 26 1003.4 0 10.6 15.0 18.4 47.7 36.8 124.9
24 12:00 40.4 10 5.21 2.9 26 33 1003.4 0 11.6 15.5 19.6 50.9 40.7 138.7
24 11:50 40 11 5.62 4 28 32 1003.5 0 12.4 16.0 20.7 53.9 44.3 151.4
24 11:40 40 11 5.62 4 28 33 1003.5 0 12.4 16.0 20.7 53.9 44.3 151.4
24 11:30 40.1 12 6.16 5.3 24 37 1003.6 0 13.5 16.5 22.1 57.5 48.8 167.3
24 11:20 39.8 12 6.07 5.1 24 28 1003.7 0 13.3 16.5 21.9 57.1 48.2 165.2
24 11:10 39.6 13 6.51 6.1 26 28 1003.9 0 14.2 17.0 23.1 60.3 52.1 179.0
24 11:00 38.4 14 6.6 6.2 24 32 1003.9 0 14.4 17.3 23.7 61.8 53.7 184.3
24 10:50 37.6 15 6.78 6.6 22 26 1004 0 14.8 17.7 24.4 63.7 55.8 191.7
24 10:40 37.1 15 6.61 6.2 22 28 1004.1 0 14.5 17.6 24.1 62.8 54.6 187.4
24 10:30 36.7 15 6.48 5.9 20 30 1004.2 0 14.3 17.5 23.8 62.2 53.7 184.1
24 10:20 35.9 15 6.22 5.2 20 24 1004.3 0 13.8 17.3 23.3 60.9 51.8 177.6
24 10:10 35.4 15 6.06 4.8 20 22 1004.3 0 13.4 17.3 23.0 60.0 50.7 173.5
24 10:00 34.8 16 6.26 5.3 20 30 1004.3 0 13.9 17.6 23.7 61.9 52.9 181.1
24 09:50 34.4 16 6.13 5 19 22 1004.3 0 13.6 17.5 23.5 61.3 51.9 177.8
24 09:40 33.8 16 5.94 4.5 20 24 1004.3 0 13.3 17.4 23.1 60.3 50.6 172.9
24 09:30 33.5 16 5.85 4.2 17 22 1004.3 0 13.1 17.4 22.9 59.8 49.9 170.6
24 09:20 33 16 5.7 3.9 15 17 1004.4 0 12.8 17.3 22.7 59.0 48.8 166.7
24 09:10 32.4 16 5.52 3.4 15 17 1004.4 0 12.4 17.2 22.3 58.1 47.5 162.0
24 09:00 32 16 5.4 3.1 17 20 1004.4 0 12.2 17.1 22.1 57.5 46.6 158.9
24 08:50 31.7 16 5.32 2.8 17 19 1004.4 0 12.0 17.1 21.9 57.1 46.1 156.8
24 08:40 31.2 15 4.85 1.5 17 19 1004.4 0 11.1 16.6 20.8 53.9 42.0 142.6
24 08:30 30.9 15 4.78 1.3 15 19 1004.4 0 11.0 16.6 20.7 53.6 41.5 140.8
24 08:20 30.7 14 4.41 0.2 15 17 1004.4 0 10.2 16.2 19.7 51.0 38.3 129.3
24 08:10 30.5 14 4.36 0 15 20 1004.3 0 10.1 16.2 19.6 50.8 37.9 128.0
24 08:00 30.4 14 4.34 -0.1 17 20 1004.1 0 10.1 16.2 19.6 50.7 37.8 127.5
24 07:50 30.2 14 4.29 -0.2 15 17 1003.9 0 10.0 16.1 19.5 50.4 37.4 126.2
24 07:40 29.8 14 4.2 -0.5 15 17 1003.9 0 9.8 16.1 19.3 50.0 36.8 123.9
24 07:30 29.4 15 4.4 0.1 13 17 1003.9 0 10.2 16.4 19.9 51.7 38.8 130.9
24 07:20 29 14 4.02 -1.2 13 15 1003.9 0 9.5 16.0 19.0 49.1 35.5 119.3
24 07:10 28.8 14 3.98 -1.3 17 19 1003.7 0 9.4 16.0 18.9 48.9 35.2 118.3
24 07:00 28.4 14 3.89 -1.6 15 17 1003.7 0 9.2 16.0 18.8 48.5 34.6 116.0
24 06:50 27.9 14 3.79 -2 13 13 1003.7 0 9.0 16.0 18.6 48.1 33.9 113.5
24 06:40 28.1 14 3.83 -1.9 13 13 1003.6 0 9.1 16.0 18.7 48.2 34.1 114.5
24 06:30 28.3 14 3.87 -1.7 13 15 1003.5 0 9.2 16.0 18.7 48.4 34.4 115.5
24 06:20 28.7 14 3.96 -1.4 13 15 1003.3 0 9.3 16.0 18.9 48.8 35.1 117.8
24 06:10 29 13 3.73 -2.2 13 17 1003.3 0 8.9 15.7 18.2 47.0 32.9 110.1
24 06:00 29.2 13 3.78 -2 15 17 1003.2 0 9.0 15.7 18.3 47.2 33.2 111.4
24 05:50 29.3 13 3.8 -1.9 13 15 1003.1 0 9.0 15.7 18.3 47.3 33.4 111.9
24 05:40 29.5 13 3.84 -1.8 15 17 1003 0 9.1 15.7 18.4 47.5 33.7 112.9
24 05:30 29.3 13 3.8 -1.9 13 20 1002.9 0 9.0 15.7 18.3 47.3 33.4 111.9
24 05:20 29 13 3.73 -2.2 11 13 1002.8 0 8.9 15.7 18.2 47.0 32.9 110.0
24 04:50 29.7 12 3.58 -2.7 11 13 1002.8 0 8.5 15.4 17.6 45.5 31.3 104.5
24 04:40 30 12 3.64 -2.5 13 13 1002.8 0 8.7 15.4 17.7 45.8 31.7 106.0
24 04:30 30.1 12 3.66 -2.4 13 15 1002.8 0 8.7 15.4 17.8 45.9 31.8 106.5
24 04:20 30.3 11 3.39 -3.4 13 15 1002.9 0 8.1 15.1 17.0 43.9 29.4 98.0
24 04:10 30.7 11 3.46 -3.1 15 17 1002.9 0 8.3 15.1 17.1 44.2 29.9 99.7
24 04:00 31.3 10 3.25 -3.9 17 20 1002.9 0 7.8 14.8 16.5 42.4 27.9 92.7
24 03:50 31.9 10 3.36 -3.5 15 19 1002.8 0 8.0 14.8 16.6 42.9 28.6 95.3
24 03:40 32.5 10 3.47 -3 19 19 1002.9 0 8.3 14.9 16.8 43.3 29.3 97.9
24 03:30 32.8 10 3.52 -2.8 19 24 1003 0 8.3 14.9 16.9 43.5 29.7 99.1
24 03:20 33 10 3.56 -2.6 20 24 1003.1 0 8.4 14.9 16.9 43.7 29.9 100.1
24 03:10 33.3 9 3.26 -3.8 20 24 1003.2 0 7.8 14.5 16.1 41.5 27.3 90.9
24 03:00 33.5 9 3.29 -3.7 20 26 1003.3 0 7.9 14.6 16.2 41.6 27.5 91.6
24 02:50 33.6 9 3.31 -3.6 20 22 1003.4 0 7.9 14.6 16.2 41.7 27.7 92.1
24 02:40 33.4 9 3.27 -3.7 22 24 1003.4 0 7.8 14.5 16.1 41.6 27.4 91.1

Last Refresh: 24-Jan-2021 19:38:52

Most of the information presented on this site is sourced from the Bureau of Meteorology.  Copyright in all material sourced from the Bureau of Meteorology resides with the Commonwealth of Australia.